sensor_id;sensor_type;location;lat;lon;timestamp;P1;durP1;ratioP1;P2;durP2;ratioP2
54805;SDS011;62866;55.776;37.496;2022-11-03T00:01:55;2.00;;;1.40;;
54805;SDS011;62866;55.776;37.496;2022-11-03T00:04:21;1.70;;;1.15;;
54805;SDS011;62866;55.776;37.496;2022-11-03T00:06:48;2.38;;;1.70;;
54805;SDS011;62866;55.776;37.496;2022-11-03T00:09:16;1.95;;;1.25;;
54805;SDS011;62866;55.776;37.496;2022-11-03T00:11:44;1.23;;;1.08;;
54805;SDS011;62866;55.776;37.496;2022-11-03T00:14:11;1.10;;;0.88;;
54805;SDS011;62866;55.776;37.496;2022-11-03T00:16:38;1.38;;;1.13;;
54805;SDS011;62866;55.776;37.496;2022-11-03T00:19:05;1.35;;;0.98;;
54805;SDS011;62866;55.776;37.496;2022-11-03T00:21:32;1.20;;;0.90;;
54805;SDS011;62866;55.776;37.496;2022-11-03T00:23:58;2.05;;;1.35;;
54805;SDS011;62866;55.776;37.496;2022-11-03T00:26:30;1.58;;;1.25;;
54805;SDS011;62866;55.776;37.496;2022-11-03T00:28:58;1.50;;;1.20;;
54805;SDS011;62866;55.776;37.496;2022-11-03T00:31:26;1.42;;;1.27;;
54805;SDS011;62866;55.776;37.496;2022-11-03T00:33:56;1.90;;;1.48;;
54805;SDS011;62866;55.776;37.496;2022-11-03T00:36:23;1.60;;;1.20;;
54805;SDS011;62866;55.776;37.496;2022-11-03T00:38:51;1.35;;;1.25;;
54805;SDS011;62866;55.776;37.496;2022-11-03T00:41:17;1.33;;;1.00;;
54805;SDS011;62866;55.776;37.496;2022-11-03T00:43:47;1.40;;;1.30;;
54805;SDS011;62866;55.776;37.496;2022-11-03T00:46:13;2.72;;;1.02;;
54805;SDS011;62866;55.776;37.496;2022-11-03T00:48:40;1.45;;;0.98;;
54805;SDS011;62866;55.776;37.496;2022-11-03T00:51:22;1.95;;;1.17;;
54805;SDS011;62866;55.776;37.496;2022-11-03T00:53:50;1.60;;;1.27;;
54805;SDS011;62866;55.776;37.496;2022-11-03T00:56:19;1.35;;;1.23;;
54805;SDS011;62866;55.776;37.496;2022-11-03T00:58:49;1.65;;;0.95;;
54805;SDS011;62866;55.776;37.496;2022-11-03T01:03:49;2.13;;;1.60;;
54805;SDS011;62866;55.776;37.496;2022-11-03T01:06:36;1.58;;;1.25;;
54805;SDS011;62866;55.776;37.496;2022-11-03T01:09:23;2.50;;;1.42;;
54805;SDS011;62866;55.776;37.496;2022-11-03T01:12:15;2.70;;;1.42;;
54805;SDS011;62866;55.776;37.496;2022-11-03T01:14:44;1.90;;;1.20;;
54805;SDS011;62866;55.776;37.496;2022-11-03T01:17:13;1.65;;;1.30;;
54805;SDS011;62866;55.776;37.496;2022-11-03T01:19:38;1.73;;;1.38;;
54805;SDS011;62866;55.776;37.496;2022-11-03T01:22:04;1.58;;;1.35;;
54805;SDS011;62866;55.776;37.496;2022-11-03T01:24:30;1.65;;;1.30;;
54805;SDS011;62866;55.776;37.496;2022-11-03T01:26:56;2.00;;;1.27;;
54805;SDS011;62866;55.776;37.496;2022-11-03T01:29:21;2.08;;;1.38;;
54805;SDS011;62866;55.776;37.496;2022-11-03T01:31:47;1.85;;;1.20;;
54805;SDS011;62866;55.776;37.496;2022-11-03T01:34:13;1.27;;;1.17;;
54805;SDS011;62866;55.776;37.496;2022-11-03T01:36:41;1.48;;;1.10;;
54805;SDS011;62866;55.776;37.496;2022-11-03T01:39:11;1.70;;;1.10;;
54805;SDS011;62866;55.776;37.496;2022-11-03T01:41:38;1.00;;;0.75;;
54805;SDS011;62866;55.776;37.496;2022-11-03T01:49:15;1.25;;;0.70;;
54805;SDS011;62866;55.776;37.496;2022-11-03T01:51:57;0.68;;;0.52;;
54805;SDS011;62866;55.776;37.496;2022-11-03T01:54:32;0.40;;;0.40;;
54805;SDS011;62866;55.776;37.496;2022-11-03T01:57:00;1.08;;;0.68;;
54805;SDS011;62866;55.776;37.496;2022-11-03T01:59:32;0.70;;;0.70;;
54805;SDS011;62866;55.776;37.496;2022-11-03T02:01:58;0.60;;;0.55;;
54805;SDS011;62866;55.776;37.496;2022-11-03T02:04:28;0.40;;;0.40;;
54805;SDS011;62866;55.776;37.496;2022-11-03T02:07:00;1.45;;;0.70;;
54805;SDS011;62866;55.776;37.496;2022-11-03T02:09:35;0.98;;;0.70;;
54805;SDS011;62866;55.776;37.496;2022-11-03T02:12:00;0.82;;;0.77;;
54805;SDS011;62866;55.776;37.496;2022-11-03T02:14:33;1.50;;;1.00;;
54805;SDS011;62866;55.776;37.496;2022-11-03T02:17:02;1.45;;;0.88;;
54805;SDS011;62866;55.776;37.496;2022-11-03T02:27:32;1.42;;;0.85;;
54805;SDS011;62866;55.776;37.496;2022-11-03T02:29:58;1.58;;;1.15;;
54805;SDS011;62866;55.776;37.496;2022-11-03T02:32:24;1.52;;;1.10;;
54805;SDS011;62866;55.776;37.496;2022-11-03T02:34:59;4.00;;;1.40;;
54805;SDS011;62866;55.776;37.496;2022-11-03T02:37:45;1.77;;;1.33;;
54805;SDS011;62866;55.776;37.496;2022-11-03T02:40:14;2.35;;;1.23;;
54805;SDS011;62866;55.776;37.496;2022-11-03T02:42:45;1.05;;;0.85;;
54805;SDS011;62866;55.776;37.496;2022-11-03T02:45:14;1.88;;;1.10;;
54805;SDS011;62866;55.776;37.496;2022-11-03T02:47:43;1.27;;;0.98;;
54805;SDS011;62866;55.776;37.496;2022-11-03T02:50:10;1.25;;;1.10;;
54805;SDS011;62866;55.776;37.496;2022-11-03T02:55:26;1.13;;;0.70;;
54805;SDS011;62866;55.776;37.496;2022-11-03T03:01:05;1.13;;;0.90;;
54805;SDS011;62866;55.776;37.496;2022-11-03T03:03:39;1.50;;;0.95;;
54805;SDS011;62866;55.776;37.496;2022-11-03T03:06:14;1.02;;;0.93;;
54805;SDS011;62866;55.776;37.496;2022-11-03T03:08:45;2.22;;;0.93;;
54805;SDS011;62866;55.776;37.496;2022-11-03T03:11:15;1.27;;;0.90;;
54805;SDS011;62866;55.776;37.496;2022-11-03T03:14:00;0.93;;;0.80;;
54805;SDS011;62866;55.776;37.496;2022-11-03T03:21:58;1.42;;;0.90;;
54805;SDS011;62866;55.776;37.496;2022-11-03T03:24:37;2.72;;;1.00;;
54805;SDS011;62866;55.776;37.496;2022-11-03T03:27:23;1.50;;;0.95;;
54805;SDS011;62866;55.776;37.496;2022-11-03T03:29:55;1.85;;;1.35;;
54805;SDS011;62866;55.776;37.496;2022-11-03T03:32:24;1.65;;;1.42;;
54805;SDS011;62866;55.776;37.496;2022-11-03T03:34:52;1.88;;;1.38;;
54805;SDS011;62866;55.776;37.496;2022-11-03T03:37:20;1.75;;;1.23;;
54805;SDS011;62866;55.776;37.496;2022-11-03T03:39:49;1.00;;;0.90;;
54805;SDS011;62866;55.776;37.496;2022-11-03T03:42:19;1.20;;;0.98;;
54805;SDS011;62866;55.776;37.496;2022-11-03T03:44:46;2.40;;;1.30;;
54805;SDS011;62866;55.776;37.496;2022-11-03T03:47:32;2.55;;;1.10;;
54805;SDS011;62866;55.776;37.496;2022-11-03T03:49:59;0.85;;;0.80;;
54805;SDS011;62866;55.776;37.496;2022-11-03T03:52:25;1.33;;;0.98;;
54805;SDS011;62866;55.776;37.496;2022-11-03T03:54:52;1.98;;;1.20;;
54805;SDS011;62866;55.776;37.496;2022-11-03T03:57:20;1.50;;;1.30;;
54805;SDS011;62866;55.776;37.496;2022-11-03T03:59:47;1.60;;;0.90;;
54805;SDS011;62866;55.776;37.496;2022-11-03T04:02:13;0.65;;;0.65;;
54805;SDS011;62866;55.776;37.496;2022-11-03T04:04:39;1.00;;;0.90;;
54805;SDS011;62866;55.776;37.496;2022-11-03T04:07:05;2.38;;;0.80;;
54805;SDS011;62866;55.776;37.496;2022-11-03T04:09:49;2.50;;;1.13;;
54805;SDS011;62866;55.776;37.496;2022-11-03T04:12:15;1.23;;;1.13;;
54805;SDS011;62866;55.776;37.496;2022-11-03T04:14:59;1.98;;;1.20;;
54805;SDS011;62866;55.776;37.496;2022-11-03T04:17:44;2.58;;;1.67;;
54805;SDS011;62866;55.776;37.496;2022-11-03T04:20:29;0.90;;;0.85;;
54805;SDS011;62866;55.776;37.496;2022-11-03T04:25:39;1.77;;;0.98;;
54805;SDS011;62866;55.776;37.496;2022-11-03T04:28:07;1.88;;;1.10;;
54805;SDS011;62866;55.776;37.496;2022-11-03T04:30:37;2.13;;;1.25;;
54805;SDS011;62866;55.776;37.496;2022-11-03T04:33:04;1.40;;;1.02;;
54805;SDS011;62866;55.776;37.496;2022-11-03T04:35:36;1.73;;;0.80;;
54805;SDS011;62866;55.776;37.496;2022-11-03T04:40:37;2.83;;;1.17;;
54805;SDS011;62866;55.776;37.496;2022-11-03T04:43:13;1.27;;;1.10;;
54805;SDS011;62866;55.776;37.496;2022-11-03T04:45:42;1.23;;;1.10;;
54805;SDS011;62866;55.776;37.496;2022-11-03T04:48:20;1.27;;;0.98;;
54805;SDS011;62866;55.776;37.496;2022-11-03T04:50:48;2.72;;;1.25;;
54805;SDS011;62866;55.776;37.496;2022-11-03T04:53:18;1.80;;;1.00;;
54805;SDS011;62866;55.776;37.496;2022-11-03T04:55:45;1.08;;;0.80;;
54805;SDS011;62866;55.776;37.496;2022-11-03T04:58:16;3.88;;;1.02;;
54805;SDS011;62866;55.776;37.496;2022-11-03T05:00:59;2.03;;;1.05;;
54805;SDS011;62866;55.776;37.496;2022-11-03T05:05:58;2.10;;;1.15;;
54805;SDS011;62866;55.776;37.496;2022-11-03T05:08:46;1.77;;;1.27;;
54805;SDS011;62866;55.776;37.496;2022-11-03T05:11:19;1.98;;;1.33;;
54805;SDS011;62866;55.776;37.496;2022-11-03T05:13:50;1.50;;;1.08;;
54805;SDS011;62866;55.776;37.496;2022-11-03T05:16:16;2.67;;;1.50;;
54805;SDS011;62866;55.776;37.496;2022-11-03T05:18:43;2.50;;;1.45;;
54805;SDS011;62866;55.776;37.496;2022-11-03T05:21:13;2.22;;;1.42;;
54805;SDS011;62866;55.776;37.496;2022-11-03T05:23:51;2.22;;;1.33;;
54805;SDS011;62866;55.776;37.496;2022-11-03T05:26:21;1.52;;;1.15;;
54805;SDS011;62866;55.776;37.496;2022-11-03T05:29:25;1.77;;;1.45;;
54805;SDS011;62866;55.776;37.496;2022-11-03T05:31:42;1.70;;;1.33;;
54805;SDS011;62866;55.776;37.496;2022-11-03T05:36:55;2.35;;;1.73;;
54805;SDS011;62866;55.776;37.496;2022-11-03T05:39:36;0.70;;;0.55;;
54805;SDS011;62866;55.776;37.496;2022-11-03T05:44:48;5.07;;;1.90;;
54805;SDS011;62866;55.776;37.496;2022-11-03T05:47:22;2.25;;;1.45;;
54805;SDS011;62866;55.776;37.496;2022-11-03T05:49:51;3.00;;;1.70;;
54805;SDS011;62866;55.776;37.496;2022-11-03T05:52:24;4.22;;;1.70;;
54805;SDS011;62866;55.776;37.496;2022-11-03T05:54:52;3.70;;;2.35;;
54805;SDS011;62866;55.776;37.496;2022-11-03T05:57:21;1.73;;;1.13;;
54805;SDS011;62866;55.776;37.496;2022-11-03T05:59:47;2.30;;;1.40;;
54805;SDS011;62866;55.776;37.496;2022-11-03T06:02:31;3.67;;;1.73;;
54805;SDS011;62866;55.776;37.496;2022-11-03T06:05:08;2.38;;;1.67;;
54805;SDS011;62866;55.776;37.496;2022-11-03T06:07:42;4.85;;;1.88;;
54805;SDS011;62866;55.776;37.496;2022-11-03T06:10:22;1.50;;;1.20;;
54805;SDS011;62866;55.776;37.496;2022-11-03T06:13:16;4.80;;;1.80;;
54805;SDS011;62866;55.776;37.496;2022-11-03T06:15:56;2.90;;;1.92;;
54805;SDS011;62866;55.776;37.496;2022-11-03T06:18:28;3.45;;;1.70;;
54805;SDS011;62866;55.776;37.496;2022-11-03T06:20:57;3.45;;;2.25;;
54805;SDS011;62866;55.776;37.496;2022-11-03T06:23:26;2.00;;;1.48;;
54805;SDS011;62866;55.776;37.496;2022-11-03T06:25:51;2.20;;;0.95;;
54805;SDS011;62866;55.776;37.496;2022-11-03T06:28:20;5.35;;;1.77;;
54805;SDS011;62866;55.776;37.496;2022-11-03T06:30:49;2.22;;;1.30;;
54805;SDS011;62866;55.776;37.496;2022-11-03T06:33:21;2.40;;;1.08;;
54805;SDS011;62866;55.776;37.496;2022-11-03T06:36:02;1.20;;;0.88;;
54805;SDS011;62866;55.776;37.496;2022-11-03T06:38:37;1.58;;;1.10;;
54805;SDS011;62866;55.776;37.496;2022-11-03T06:41:03;4.95;;;2.55;;
54805;SDS011;62866;55.776;37.496;2022-11-03T06:43:41;2.95;;;2.03;;
54805;SDS011;62866;55.776;37.496;2022-11-03T06:46:28;3.17;;;1.73;;
54805;SDS011;62866;55.776;37.496;2022-11-03T06:48:56;1.58;;;1.23;;
54805;SDS011;62866;55.776;37.496;2022-11-03T06:51:28;2.05;;;1.55;;
54805;SDS011;62866;55.776;37.496;2022-11-03T06:53:56;2.35;;;1.10;;
54805;SDS011;62866;55.776;37.496;2022-11-03T06:56:25;3.42;;;1.10;;
54805;SDS011;62866;55.776;37.496;2022-11-03T06:58:59;2.85;;;1.75;;
54805;SDS011;62866;55.776;37.496;2022-11-03T07:01:26;2.40;;;1.60;;
54805;SDS011;62866;55.776;37.496;2022-11-03T07:03:58;3.53;;;1.23;;
54805;SDS011;62866;55.776;37.496;2022-11-03T07:06:36;2.25;;;1.13;;
54805;SDS011;62866;55.776;37.496;2022-11-03T07:09:06;2.72;;;0.70;;
54805;SDS011;62866;55.776;37.496;2022-11-03T07:11:43;1.95;;;1.25;;
54805;SDS011;62866;55.776;37.496;2022-11-03T07:14:15;2.63;;;1.58;;
54805;SDS011;62866;55.776;37.496;2022-11-03T07:16:47;4.55;;;1.63;;
54805;SDS011;62866;55.776;37.496;2022-11-03T07:19:22;4.40;;;1.33;;
54805;SDS011;62866;55.776;37.496;2022-11-03T07:21:52;1.45;;;1.15;;
54805;SDS011;62866;55.776;37.496;2022-11-03T07:24:28;1.55;;;1.08;;
54805;SDS011;62866;55.776;37.496;2022-11-03T07:26:58;1.10;;;1.00;;
54805;SDS011;62866;55.776;37.496;2022-11-03T07:29:32;1.65;;;1.35;;
54805;SDS011;62866;55.776;37.496;2022-11-03T07:31:58;1.00;;;0.73;;
54805;SDS011;62866;55.776;37.496;2022-11-03T07:34:26;2.28;;;1.58;;
54805;SDS011;62866;55.776;37.496;2022-11-03T07:36:57;2.83;;;1.70;;
54805;SDS011;62866;55.776;37.496;2022-11-03T07:39:23;1.48;;;1.10;;
54805;SDS011;62866;55.776;37.496;2022-11-03T07:41:52;3.53;;;1.77;;
54805;SDS011;62866;55.776;37.496;2022-11-03T07:44:18;3.17;;;1.80;;
54805;SDS011;62866;55.776;37.496;2022-11-03T07:46:45;1.50;;;1.20;;
54805;SDS011;62866;55.776;37.496;2022-11-03T07:49:26;3.10;;;1.80;;
54805;SDS011;62866;55.776;37.496;2022-11-03T07:51:53;2.58;;;1.20;;
54805;SDS011;62866;55.776;37.496;2022-11-03T07:54:29;2.83;;;1.63;;
54805;SDS011;62866;55.776;37.496;2022-11-03T07:59:45;2.05;;;1.55;;
54805;SDS011;62866;55.776;37.496;2022-11-03T08:04:57;2.00;;;1.30;;
54805;SDS011;62866;55.776;37.496;2022-11-03T08:07:23;2.55;;;1.85;;
54805;SDS011;62866;55.776;37.496;2022-11-03T08:09:49;3.97;;;1.75;;
54805;SDS011;62866;55.776;37.496;2022-11-03T08:12:15;2.67;;;1.75;;
54805;SDS011;62866;55.776;37.496;2022-11-03T08:14:41;2.50;;;1.52;;
54805;SDS011;62866;55.776;37.496;2022-11-03T08:17:06;3.70;;;2.13;;
54805;SDS011;62866;55.776;37.496;2022-11-03T08:19:32;4.85;;;1.70;;
54805;SDS011;62866;55.776;37.496;2022-11-03T08:21:57;2.92;;;1.50;;
54805;SDS011;62866;55.776;37.496;2022-11-03T08:24:23;2.03;;;1.27;;
54805;SDS011;62866;55.776;37.496;2022-11-03T08:26:48;2.40;;;1.35;;
54805;SDS011;62866;55.776;37.496;2022-11-03T08:29:14;1.65;;;1.23;;
54805;SDS011;62866;55.776;37.496;2022-11-03T08:31:41;2.20;;;1.70;;
54805;SDS011;62866;55.776;37.496;2022-11-03T08:34:07;4.28;;;1.98;;
54805;SDS011;62866;55.776;37.496;2022-11-03T08:36:33;1.23;;;1.05;;
54805;SDS011;62866;55.776;37.496;2022-11-03T08:38:59;2.65;;;1.60;;
54805;SDS011;62866;55.776;37.496;2022-11-03T08:41:24;2.15;;;1.50;;
54805;SDS011;62866;55.776;37.496;2022-11-03T08:43:50;4.95;;;1.55;;
54805;SDS011;62866;55.776;37.496;2022-11-03T08:46:15;2.78;;;1.50;;
54805;SDS011;62866;55.776;37.496;2022-11-03T08:48:41;2.45;;;1.60;;
54805;SDS011;62866;55.776;37.496;2022-11-03T08:51:06;1.00;;;0.90;;
54805;SDS011;62866;55.776;37.496;2022-11-03T08:53:37;2.60;;;1.42;;
54805;SDS011;62866;55.776;37.496;2022-11-03T08:56:03;1.95;;;1.15;;
54805;SDS011;62866;55.776;37.496;2022-11-03T08:58:30;3.80;;;1.52;;
54805;SDS011;62866;55.776;37.496;2022-11-03T09:00:55;2.03;;;1.35;;
54805;SDS011;62866;55.776;37.496;2022-11-03T09:03:21;1.65;;;1.10;;
54805;SDS011;62866;55.776;37.496;2022-11-03T09:05:47;1.60;;;1.42;;
54805;SDS011;62866;55.776;37.496;2022-11-03T09:08:12;1.90;;;1.52;;
54805;SDS011;62866;55.776;37.496;2022-11-03T09:10:38;1.10;;;1.00;;
54805;SDS011;62866;55.776;37.496;2022-11-03T09:13:04;3.30;;;1.70;;
54805;SDS011;62866;55.776;37.496;2022-11-03T09:15:30;1.63;;;1.13;;
54805;SDS011;62866;55.776;37.496;2022-11-03T09:17:55;1.75;;;1.17;;
54805;SDS011;62866;55.776;37.496;2022-11-03T09:20:21;2.47;;;1.30;;
54805;SDS011;62866;55.776;37.496;2022-11-03T09:22:47;0.95;;;0.88;;
54805;SDS011;62866;55.776;37.496;2022-11-03T09:25:12;2.38;;;1.17;;
54805;SDS011;62866;55.776;37.496;2022-11-03T09:27:38;3.22;;;1.48;;
54805;SDS011;62866;55.776;37.496;2022-11-03T09:30:04;2.13;;;1.30;;
54805;SDS011;62866;55.776;37.496;2022-11-03T09:32:30;2.35;;;1.48;;
54805;SDS011;62866;55.776;37.496;2022-11-03T09:34:56;0.80;;;0.70;;
54805;SDS011;62866;55.776;37.496;2022-11-03T09:37:21;1.73;;;1.33;;
54805;SDS011;62866;55.776;37.496;2022-11-03T09:39:47;3.22;;;1.38;;
54805;SDS011;62866;55.776;37.496;2022-11-03T09:42:13;1.38;;;0.93;;
54805;SDS011;62866;55.776;37.496;2022-11-03T09:44:40;4.32;;;1.80;;
54805;SDS011;62866;55.776;37.496;2022-11-03T09:47:19;1.70;;;1.33;;
54805;SDS011;62866;55.776;37.496;2022-11-03T09:49:49;0.77;;;0.77;;
54805;SDS011;62866;55.776;37.496;2022-11-03T09:52:16;1.92;;;1.65;;
54805;SDS011;62866;55.776;37.496;2022-11-03T09:54:46;2.05;;;1.60;;
54805;SDS011;62866;55.776;37.496;2022-11-03T09:57:11;0.65;;;0.65;;
54805;SDS011;62866;55.776;37.496;2022-11-03T09:59:40;2.80;;;1.27;;
54805;SDS011;62866;55.776;37.496;2022-11-03T10:02:30;2.70;;;1.80;;
54805;SDS011;62866;55.776;37.496;2022-11-03T10:04:56;1.75;;;1.45;;
54805;SDS011;62866;55.776;37.496;2022-11-03T10:07:27;2.25;;;1.35;;
54805;SDS011;62866;55.776;37.496;2022-11-03T10:09:55;2.17;;;1.50;;
54805;SDS011;62866;55.776;37.496;2022-11-03T10:12:24;1.67;;;1.33;;
54805;SDS011;62866;55.776;37.496;2022-11-03T10:14:50;2.38;;;1.80;;
54805;SDS011;62866;55.776;37.496;2022-11-03T10:17:23;2.17;;;1.40;;
54805;SDS011;62866;55.776;37.496;2022-11-03T10:19:51;2.43;;;1.63;;
54805;SDS011;62866;55.776;37.496;2022-11-03T10:22:20;1.95;;;1.40;;
54805;SDS011;62866;55.776;37.496;2022-11-03T10:24:46;2.20;;;1.67;;
54805;SDS011;62866;55.776;37.496;2022-11-03T10:27:19;1.90;;;1.10;;
54805;SDS011;62866;55.776;37.496;2022-11-03T10:30:08;1.95;;;1.20;;
54805;SDS011;62866;55.776;37.496;2022-11-03T10:32:34;2.42;;;1.55;;
54805;SDS011;62866;55.776;37.496;2022-11-03T10:35:00;4.25;;;1.80;;
54805;SDS011;62866;55.776;37.496;2022-11-03T10:37:46;1.92;;;1.48;;
54805;SDS011;62866;55.776;37.496;2022-11-03T10:40:32;1.30;;;0.82;;
54805;SDS011;62866;55.776;37.496;2022-11-03T10:43:00;3.25;;;1.73;;
54805;SDS011;62866;55.776;37.496;2022-11-03T10:45:26;2.05;;;1.25;;
54805;SDS011;62866;55.776;37.496;2022-11-03T10:47:58;3.50;;;1.85;;
54805;SDS011;62866;55.776;37.496;2022-11-03T10:50:26;2.63;;;1.75;;
54805;SDS011;62866;55.776;37.496;2022-11-03T10:52:52;2.50;;;1.77;;
54805;SDS011;62866;55.776;37.496;2022-11-03T10:55:19;3.42;;;2.30;;
54805;SDS011;62866;55.776;37.496;2022-11-03T10:57:45;2.40;;;1.95;;
54805;SDS011;62866;55.776;37.496;2022-11-03T11:00:15;3.28;;;2.30;;
54805;SDS011;62866;55.776;37.496;2022-11-03T11:02:42;2.20;;;1.67;;
54805;SDS011;62866;55.776;37.496;2022-11-03T11:07:38;5.45;;;2.10;;
54805;SDS011;62866;55.776;37.496;2022-11-03T11:12:34;2.53;;;1.95;;
54805;SDS011;62866;55.776;37.496;2022-11-03T11:15:01;4.03;;;1.60;;
54805;SDS011;62866;55.776;37.496;2022-11-03T11:17:49;2.75;;;1.73;;
54805;SDS011;62866;55.776;37.496;2022-11-03T11:22:48;3.03;;;2.20;;
54805;SDS011;62866;55.776;37.496;2022-11-03T11:25:15;5.65;;;1.60;;
54805;SDS011;62866;55.776;37.496;2022-11-03T11:37:41;3.63;;;1.83;;
54805;SDS011;62866;55.776;37.496;2022-11-03T11:40:10;1.10;;;0.88;;
54805;SDS011;62866;55.776;37.496;2022-11-03T11:48:29;2.45;;;1.85;;
54805;SDS011;62866;55.776;37.496;2022-11-03T11:50:58;3.58;;;1.98;;
54805;SDS011;62866;55.776;37.496;2022-11-03T11:53:25;8.10;;;1.67;;
54805;SDS011;62866;55.776;37.496;2022-11-03T11:55:55;3.80;;;2.42;;
54805;SDS011;62866;55.776;37.496;2022-11-03T12:03:45;2.72;;;2.13;;
54805;SDS011;62866;55.776;37.496;2022-11-03T12:06:12;2.40;;;1.60;;
54805;SDS011;62866;55.776;37.496;2022-11-03T12:08:37;2.85;;;1.63;;
54805;SDS011;62866;55.776;37.496;2022-11-03T12:11:04;4.38;;;2.85;;
54805;SDS011;62866;55.776;37.496;2022-11-03T12:16:28;1.48;;;1.23;;
54805;SDS011;62866;55.776;37.496;2022-11-03T12:18:54;3.58;;;1.63;;
54805;SDS011;62866;55.776;37.496;2022-11-03T12:24:25;5.80;;;2.83;;
54805;SDS011;62866;55.776;37.496;2022-11-03T12:26:52;2.25;;;1.05;;
54805;SDS011;62866;55.776;37.496;2022-11-03T12:29:17;4.18;;;2.40;;
54805;SDS011;62866;55.776;37.496;2022-11-03T12:31:43;3.85;;;2.25;;
54805;SDS011;62866;55.776;37.496;2022-11-03T12:34:08;4.95;;;2.53;;
54805;SDS011;62866;55.776;37.496;2022-11-03T12:36:34;4.70;;;2.83;;
54805;SDS011;62866;55.776;37.496;2022-11-03T12:38:59;6.22;;;2.70;;
54805;SDS011;62866;55.776;37.496;2022-11-03T12:41:25;4.00;;;2.50;;
54805;SDS011;62866;55.776;37.496;2022-11-03T12:43:51;5.07;;;2.45;;
54805;SDS011;62866;55.776;37.496;2022-11-03T12:46:18;6.35;;;3.33;;
54805;SDS011;62866;55.776;37.496;2022-11-03T12:48:45;3.92;;;2.50;;
54805;SDS011;62866;55.776;37.496;2022-11-03T12:51:15;8.07;;;2.67;;
54805;SDS011;62866;55.776;37.496;2022-11-03T12:53:42;8.13;;;3.33;;
54805;SDS011;62866;55.776;37.496;2022-11-03T12:56:08;7.18;;;3.00;;
54805;SDS011;62866;55.776;37.496;2022-11-03T12:58:34;8.85;;;3.30;;
54805;SDS011;62866;55.776;37.496;2022-11-03T13:01:00;5.25;;;2.97;;
54805;SDS011;62866;55.776;37.496;2022-11-03T13:03:26;6.00;;;3.13;;
54805;SDS011;62866;55.776;37.496;2022-11-03T13:05:55;6.03;;;2.78;;
54805;SDS011;62866;55.776;37.496;2022-11-03T13:08:20;5.75;;;3.50;;
54805;SDS011;62866;55.776;37.496;2022-11-03T13:10:46;2.35;;;1.73;;
54805;SDS011;62866;55.776;37.496;2022-11-03T13:13:12;5.85;;;3.20;;
54805;SDS011;62866;55.776;37.496;2022-11-03T13:15:38;5.70;;;3.13;;
54805;SDS011;62866;55.776;37.496;2022-11-03T13:18:03;5.82;;;3.00;;
54805;SDS011;62866;55.776;37.496;2022-11-03T13:20:32;5.22;;;2.38;;
54805;SDS011;62866;55.776;37.496;2022-11-03T13:22:58;3.83;;;2.05;;
54805;SDS011;62866;55.776;37.496;2022-11-03T13:25:24;7.38;;;2.95;;
54805;SDS011;62866;55.776;37.496;2022-11-03T13:27:50;4.70;;;2.72;;
54805;SDS011;62866;55.776;37.496;2022-11-03T13:30:18;4.95;;;2.85;;
54805;SDS011;62866;55.776;37.496;2022-11-03T13:32:45;5.18;;;2.78;;
54805;SDS011;62866;55.776;37.496;2022-11-03T13:35:10;5.53;;;2.70;;
54805;SDS011;62866;55.776;37.496;2022-11-03T13:37:36;6.28;;;2.72;;
54805;SDS011;62866;55.776;37.496;2022-11-03T13:40:01;3.35;;;2.13;;
54805;SDS011;62866;55.776;37.496;2022-11-03T13:42:27;5.68;;;2.97;;
54805;SDS011;62866;55.776;37.496;2022-11-03T13:44:53;6.15;;;2.80;;
54805;SDS011;62866;55.776;37.496;2022-11-03T13:47:18;6.70;;;2.92;;
54805;SDS011;62866;55.776;37.496;2022-11-03T13:49:44;6.05;;;3.15;;
54805;SDS011;62866;55.776;37.496;2022-11-03T13:52:09;8.05;;;3.13;;
54805;SDS011;62866;55.776;37.496;2022-11-03T13:54:35;6.07;;;2.90;;
54805;SDS011;62866;55.776;37.496;2022-11-03T13:57:00;5.60;;;2.78;;
54805;SDS011;62866;55.776;37.496;2022-11-03T13:59:26;7.15;;;3.15;;
54805;SDS011;62866;55.776;37.496;2022-11-03T14:01:51;4.72;;;2.60;;
54805;SDS011;62866;55.776;37.496;2022-11-03T14:04:17;4.68;;;2.60;;
54805;SDS011;62866;55.776;37.496;2022-11-03T14:06:43;2.67;;;1.20;;
54805;SDS011;62866;55.776;37.496;2022-11-03T14:09:08;5.18;;;2.30;;
54805;SDS011;62866;55.776;37.496;2022-11-03T14:11:34;4.32;;;2.50;;
54805;SDS011;62866;55.776;37.496;2022-11-03T14:14:18;5.30;;;2.28;;
54805;SDS011;62866;55.776;37.496;2022-11-03T14:16:43;2.78;;;1.67;;
54805;SDS011;62866;55.776;37.496;2022-11-03T14:19:09;5.20;;;2.53;;
54805;SDS011;62866;55.776;37.496;2022-11-03T14:21:34;2.67;;;2.15;;
54805;SDS011;62866;55.776;37.496;2022-11-03T14:24:02;3.53;;;2.15;;
54805;SDS011;62866;55.776;37.496;2022-11-03T14:26:29;4.55;;;2.15;;
54805;SDS011;62866;55.776;37.496;2022-11-03T14:28:55;2.30;;;1.80;;
54805;SDS011;62866;55.776;37.496;2022-11-03T14:31:20;5.38;;;2.03;;
54805;SDS011;62866;55.776;37.496;2022-11-03T14:33:46;5.57;;;2.25;;
54805;SDS011;62866;55.776;37.496;2022-11-03T14:36:11;2.70;;;2.20;;
54805;SDS011;62866;55.776;37.496;2022-11-03T14:38:37;3.92;;;1.95;;
54805;SDS011;62866;55.776;37.496;2022-11-03T14:41:02;4.32;;;2.40;;
54805;SDS011;62866;55.776;37.496;2022-11-03T14:43:46;3.83;;;2.05;;
54805;SDS011;62866;55.776;37.496;2022-11-03T14:46:12;2.30;;;1.58;;
54805;SDS011;62866;55.776;37.496;2022-11-03T14:48:37;4.07;;;1.98;;
54805;SDS011;62866;55.776;37.496;2022-11-03T14:51:03;5.47;;;2.50;;
54805;SDS011;62866;55.776;37.496;2022-11-03T14:53:28;4.15;;;2.15;;
54805;SDS011;62866;55.776;37.496;2022-11-03T14:55:54;3.10;;;1.85;;
54805;SDS011;62866;55.776;37.496;2022-11-03T14:58:20;4.25;;;2.10;;
54805;SDS011;62866;55.776;37.496;2022-11-03T15:00:45;3.38;;;1.80;;
54805;SDS011;62866;55.776;37.496;2022-11-03T15:03:11;3.10;;;2.03;;
54805;SDS011;62866;55.776;37.496;2022-11-03T15:05:36;3.40;;;1.75;;
54805;SDS011;62866;55.776;37.496;2022-11-03T15:08:08;4.47;;;1.90;;
54805;SDS011;62866;55.776;37.496;2022-11-03T15:10:34;5.15;;;2.30;;
54805;SDS011;62866;55.776;37.496;2022-11-03T15:12:59;2.97;;;1.45;;
54805;SDS011;62866;55.776;37.496;2022-11-03T15:15:25;3.25;;;1.83;;
54805;SDS011;62866;55.776;37.496;2022-11-03T15:17:50;3.17;;;1.98;;
54805;SDS011;62866;55.776;37.496;2022-11-03T15:20:16;5.15;;;2.30;;
54805;SDS011;62866;55.776;37.496;2022-11-03T15:22:41;3.65;;;2.05;;
54805;SDS011;62866;55.776;37.496;2022-11-03T15:25:07;3.47;;;2.20;;
54805;SDS011;62866;55.776;37.496;2022-11-03T15:27:33;5.13;;;1.92;;
54805;SDS011;62866;55.776;37.496;2022-11-03T15:29:58;3.15;;;2.10;;
54805;SDS011;62866;55.776;37.496;2022-11-03T15:32:24;3.28;;;2.08;;
54805;SDS011;62866;55.776;37.496;2022-11-03T15:34:50;3.50;;;1.75;;
54805;SDS011;62866;55.776;37.496;2022-11-03T15:37:16;5.05;;;2.00;;
54805;SDS011;62866;55.776;37.496;2022-11-03T15:39:42;2.75;;;1.70;;
54805;SDS011;62866;55.776;37.496;2022-11-03T15:42:07;2.83;;;1.67;;
54805;SDS011;62866;55.776;37.496;2022-11-03T15:44:33;4.40;;;2.13;;
54805;SDS011;62866;55.776;37.496;2022-11-03T15:46:58;5.85;;;2.17;;
54805;SDS011;62866;55.776;37.496;2022-11-03T15:49:24;3.92;;;2.20;;
54805;SDS011;62866;55.776;37.496;2022-11-03T15:51:50;2.30;;;1.27;;
54805;SDS011;62866;55.776;37.496;2022-11-03T15:54:15;8.75;;;3.95;;
54805;SDS011;62866;55.776;37.496;2022-11-03T15:56:41;4.07;;;2.70;;
54805;SDS011;62866;55.776;37.496;2022-11-03T15:59:06;3.78;;;1.95;;
54805;SDS011;62866;55.776;37.496;2022-11-03T16:01:32;3.17;;;2.08;;
54805;SDS011;62866;55.776;37.496;2022-11-03T16:03:59;4.60;;;2.30;;
54805;SDS011;62866;55.776;37.496;2022-11-03T16:06:25;3.47;;;2.17;;